Time;durP1;ratioP1;P1;durP2;ratioP2;P2;SDS_P1;SDS_P2;PMS_P1;PMS_P2;Temp;Humidity;BMP_temperature;BMP_pressure;BME280_temperature;BME280_humidity;BME280_pressure;Samples;Min_cycle;Max_cycle;Signal;HPM_P1;HPM_P2
2023/05/04 00:03:03;;;;;;;2.67;1.48;;;;;;;0.01;0.00;59042.03;10560561;28;20507;-74
2023/05/04 00:08:05;;;;;;;2.15;1.48;;;;;;;0.01;0.00;59042.03;10562677;27;20519;-73
2023/05/04 00:13:06;;;;;;;2.35;1.45;;;;;;;0.01;0.00;59042.03;10561307;28;20040;-73
2023/05/04 00:18:08;;;;;;;1.65;1.08;;;;;;;0.01;0.00;59042.03;10553558;27;20040;-74
2023/05/04 00:23:10;;;;;;;0.85;0.80;;;;;;;0.01;0.00;59042.03;10568440;28;20671;-73
2023/05/04 00:28:11;;;;;;;2.17;1.40;;;;;;;0.01;0.00;59042.03;10561902;28;20047;-73
2023/05/04 00:33:13;;;;;;;2.35;1.33;;;;;;;0.01;0.00;59042.03;10559476;28;20050;-73
2023/05/04 00:38:15;;;;;;;2.33;1.35;;;;;;;0.01;0.00;59042.03;10545523;28;20049;-74
2023/05/04 00:43:17;;;;;;;2.95;1.50;;;;;;;0.01;0.00;59042.03;10563112;28;20044;-74
2023/05/04 00:48:19;;;;;;;2.03;1.42;;;;;;;0.01;0.00;59042.03;10553850;28;20043;-74
2023/05/04 00:53:21;;;;;;;2.53;1.63;;;;;;;0.01;0.00;59042.03;10555070;28;20050;-74
2023/05/04 00:58:23;;;;;;;1.40;0.90;;;;;;;0.01;0.00;59042.03;10561972;28;20047;-73
2023/05/04 01:03:25;;;;;;;6.47;1.20;;;;;;;0.01;0.00;59042.03;10569423;27;20059;-74
2023/05/04 01:08:31;;;;;;;2.83;0.88;;;;;;;0.01;0.00;59042.03;10578955;27;20043;-74
2023/05/04 01:13:34;;;;;;;2.17;1.48;;;;;;;0.01;0.00;59042.03;10546669;28;20040;-73
2023/05/04 01:18:36;;;;;;;1.48;0.88;;;;;;;0.01;0.00;59042.03;10552362;27;20044;-74
2023/05/04 01:23:37;;;;;;;1.48;0.77;;;;;;;0.01;0.00;59042.03;10554011;28;20058;-74
2023/05/04 01:28:52;;;;;;;2.97;1.30;;;;;;;0.01;0.00;59042.03;10549012;28;20047;-74
2023/05/04 01:33:55;;;;;;;0.75;0.55;;;;;;;0.01;0.00;59042.03;10541620;28;20043;-73
2023/05/04 01:38:59;;;;;;;2.83;1.55;;;;;;;0.01;0.00;59042.03;10559284;28;20039;-73
2023/05/04 01:44:01;;;;;;;2.20;1.08;;;;;;;0.01;0.00;59042.03;10568092;28;20086;-73
2023/05/04 01:49:02;;;;;;;2.92;1.50;;;;;;;0.01;0.00;59042.03;10542222;28;20039;-74
2023/05/04 01:54:05;;;;;;;8.45;0.70;;;;;;;0.01;0.00;59042.03;10567572;27;20138;-74
2023/05/04 01:59:06;;;;;;;3.63;1.23;;;;;;;0.01;0.00;59042.03;10562513;27;20047;-74
2023/05/04 02:04:08;;;;;;;1.55;0.80;;;;;;;0.01;0.00;59042.03;10545773;28;20403;-74
2023/05/04 02:09:13;;;;;;;1.48;0.77;;;;;;;0.00;0.00;75264.47;10549056;28;20043;-74
2023/05/04 02:14:14;;;;;;;2.05;0.93;;;;;;;0.00;0.00;75340.78;10558451;28;20417;-73
2023/05/04 02:19:16;;;;;;;1.17;0.85;;;;;;;0.00;0.00;75342.28;10561811;28;20047;-74
2023/05/04 02:24:17;;;;;;;0.95;0.60;;;;;;;0.00;0.00;75336.19;10556096;28;20046;-74
2023/05/04 02:29:19;;;;;;;0.95;0.85;;;;;;;0.00;0.00;75330.09;10530925;28;20075;-74
2023/05/04 02:34:20;;;;;;;1.83;1.00;;;;;;;0.00;0.00;75331.63;10556846;28;20154;-74
2023/05/04 02:39:22;;;;;;;1.35;0.90;;;;;;;0.00;0.00;75333.13;10554733;28;20047;-74
2023/05/04 02:44:23;;;;;;;1.42;1.10;;;;;;;0.00;0.00;75336.19;10539467;28;20048;-74
2023/05/04 02:49:25;;;;;;;3.30;1.30;;;;;;;0.00;0.00;75343.81;10554584;28;20044;-74
2023/05/04 02:54:27;;;;;;;2.72;1.25;;;;;;;0.00;0.00;75342.28;10555538;28;20044;-74
2023/05/04 02:59:28;;;;;;;1.92;1.13;;;;;;;0.00;0.00;75346.88;10547474;28;20040;-74
2023/05/04 03:04:30;;;;;;;1.77;1.10;;;;;;;0.00;0.00;75346.88;10555232;28;20054;-74
2023/05/04 03:09:31;;;;;;;3.92;1.83;;;;;;;0.00;0.00;75351.44;10548200;28;20048;-74
2023/05/04 03:14:33;;;;;;;2.38;1.05;;;;;;;0.00;0.00;75351.44;10563600;27;20040;-74
2023/05/04 03:19:35;;;;;;;0.73;0.57;;;;;;;0.00;0.00;75348.41;10548209;28;20055;-74
2023/05/04 03:24:38;;;;;;;3.55;1.58;;;;;;;0.00;0.00;75359.09;10545981;28;20039;-74
2023/05/04 03:29:40;;;;;;;1.70;0.70;;;;;;;0.00;0.00;75366.72;10554270;28;20055;-74
2023/05/04 03:34:44;;;;;;;1.83;1.33;;;;;;;0.00;0.00;75359.09;10544013;28;20069;-74
2023/05/04 03:39:46;;;;;;;0.80;0.80;;;;;;;0.00;0.00;75357.56;10552855;28;20514;-74
2023/05/04 03:44:48;;;;;;;3.03;1.17;;;;;;;0.00;0.00;75348.41;10559632;28;20050;-74
2023/05/04 03:49:49;;;;;;;0.63;0.60;;;;;;;0.00;0.00;75345.34;10547014;28;20047;-74
2023/05/04 03:54:51;;;;;;;4.63;1.65;;;;;;;0.00;0.00;75345.34;10554098;27;20721;-74
2023/05/04 03:59:53;;;;;;;1.75;1.13;;;;;;;0.00;0.00;75342.28;10543084;28;20040;-74
2023/05/04 04:04:58;;;;;;;1.33;1.17;;;;;;;0.00;0.00;75333.13;10548590;28;20039;-74
2023/05/04 04:10:00;;;;;;;1.45;1.05;;;;;;;0.00;0.00;75322.47;10555118;28;20134;-74
2023/05/04 04:15:01;;;;;;;0.75;0.75;;;;;;;0.00;0.00;75317.88;10550499;27;20052;-74
2023/05/04 04:20:03;;;;;;;2.20;1.10;;;;;;;0.00;0.00;75314.84;10549988;28;20055;-74
2023/05/04 04:25:06;;;;;;;0.50;0.50;;;;;;;0.00;0.00;75310.25;10546424;27;20044;-74
2023/05/04 04:30:08;;;;;;;3.33;1.88;;;;;;;0.00;0.00;75299.56;10548708;28;20048;-74
2023/05/04 04:35:09;;;;;;;0.93;0.88;;;;;;;0.00;0.00;75298.03;10558725;28;20083;-74
2023/05/04 04:40:11;;;;;;;2.42;1.48;;;;;;;0.01;0.00;59042.03;10553367;28;20056;-74
2023/05/04 04:45:14;;;;;;;1.55;1.00;;;;;;;0.00;0.00;75281.25;10539910;28;20047;-74
2023/05/04 04:50:16;;;;;;;3.08;1.55;;;;;;;0.00;0.00;75276.69;10561404;28;20444;-74
2023/05/04 04:55:17;;;;;;;2.85;1.05;;;;;;;0.00;0.00;75269.06;10544745;28;20056;-73
2023/05/04 05:00:21;;;;;;;2.15;1.20;;;;;;;0.00;0.00;75264.47;10569532;28;20075;-73
2023/05/04 05:05:22;;;;;;;1.90;1.33;;;;;;;0.00;0.00;75249.22;10559316;28;20042;-73
2023/05/04 05:10:24;;;;;;;1.40;1.05;;;;;;;0.00;0.00;75232.44;10560524;28;20046;-74
2023/05/04 05:15:26;;;;;;;2.38;1.50;;;;;;;0.00;0.00;75221.75;10561457;28;20048;-74
2023/05/04 05:20:27;;;;;;;2.30;1.08;;;;;;;0.00;0.00;75215.66;10558686;28;20036;-73
2023/05/04 05:25:29;;;;;;;2.60;1.70;;;;;;;0.00;0.00;75192.75;10560190;28;20127;-74
2023/05/04 05:30:31;;;;;;;5.22;1.38;;;;;;;0.00;0.00;75183.59;10552642;28;20048;-74
2023/05/04 05:35:32;;;;;;;6.13;1.25;;;;;;;0.00;0.00;75157.66;10548866;28;20067;-74
2023/05/04 05:40:35;;;;;;;1.67;1.33;;;;;;;0.00;0.00;75134.78;10559898;28;20476;-74
2023/05/04 05:45:37;;;;;;;2.17;1.23;;;;;;;0.01;0.00;59042.03;10567111;28;20042;-74
2023/05/04 05:50:38;;;;;;;2.35;1.23;;;;;;;0.01;0.00;59042.03;10556897;28;20533;-74
2023/05/04 05:55:40;;;;;;;3.45;1.60;;;;;;;0.01;0.00;59042.03;10542091;28;20036;-74
2023/05/04 06:00:41;;;;;;;1.30;0.88;;;;;;;0.01;0.00;59042.03;10549642;28;20051;-74
2023/05/04 06:05:43;;;;;;;8.95;2.20;;;;;;;0.00;0.00;75134.78;10565369;28;20495;-75
2023/05/04 06:10:45;;;;;;;1.75;1.10;;;;;;;0.00;0.00;75003.56;10551994;28;20473;-75
2023/05/04 06:15:53;;;;;;;4.88;1.90;;;;;;;0.00;0.00;74979.13;10550272;27;20054;-75
2023/05/04 06:20:58;;;;;;;4.65;2.05;;;;;;;0.00;0.00;74954.72;10540732;28;20119;-75
2023/05/04 06:26:00;;;;;;;3.45;1.42;;;;;;;0.00;0.00;59042.03;10551069;28;20055;-75
2023/05/04 06:31:02;;;;;;;3.60;1.70;;;;;;;0.01;0.00;59042.03;10547789;28;20052;-75
2023/05/04 06:36:04;;;;;;;1.88;1.17;;;;;;;0.00;0.00;74866.22;10555201;28;20499;-74
2023/05/04 06:41:06;;;;;;;3.35;1.65;;;;;;;0.00;0.00;74814.34;10565344;28;20089;-75
2023/05/04 06:46:07;;;;;;;3.10;1.52;;;;;;;0.00;0.00;74776.19;10547932;28;20035;-75
2023/05/04 06:51:09;;;;;;;2.63;1.52;;;;;;;0.00;0.00;74742.63;10543136;28;20035;-75
2023/05/04 06:56:11;;;;;;;7.55;1.52;;;;;;;0.00;0.00;74704.47;10557256;28;20043;-75
2023/05/04 07:01:12;;;;;;;5.30;1.42;;;;;;;0.01;0.00;59042.03;10561944;28;20035;-75
2023/05/04 07:06:16;;;;;;;2.10;1.27;;;;;;;0.01;0.00;59042.03;10556835;28;20068;-74
2023/05/04 07:11:17;;;;;;;6.97;1.40;;;;;;;0.01;0.00;59042.03;10533918;28;20040;-74
2023/05/04 07:16:19;;;;;;;1.70;1.08;;;;;;;0.01;0.00;59042.03;10540587;28;20044;-75
2023/05/04 07:21:20;;;;;;;2.03;1.23;;;;;;;0.01;0.00;59042.03;10544249;28;20445;-75
2023/05/04 07:26:29;;;;;;;3.63;1.67;;;;;;;0.01;0.00;59042.03;10554640;28;20129;-75
2023/05/04 07:31:31;;;;;;;3.95;1.60;;;;;;;0.01;0.00;59042.03;10548740;28;20048;-75
2023/05/04 07:36:35;;;;;;;7.47;1.70;;;;;;;0.01;0.00;59042.03;10550092;28;20075;-75
2023/05/04 07:41:37;;;;;;;4.50;1.63;;;;;;;0.01;0.00;59042.03;10551681;28;20032;-75
2023/05/04 07:46:39;;;;;;;3.25;1.55;;;;;;;0.01;0.00;59042.03;10574250;28;20063;-75
2023/05/04 07:51:41;;;;;;;3.17;1.23;;;;;;;0.01;0.00;59042.03;10528612;28;20040;-75
2023/05/04 07:56:42;;;;;;;2.30;1.48;;;;;;;0.00;0.00;74274.19;10555576;28;20051;-74
2023/05/04 08:01:45;;;;;;;3.40;1.73;;;;;;;0.00;0.00;74234.50;10546208;28;20036;-75
2023/05/04 08:06:48;;;;;;;2.65;1.10;;;;;;;0.00;0.00;74178.03;10539211;28;20067;-76
2023/05/04 08:11:49;;;;;;;2.58;1.13;;;;;;;0.00;0.00;74141.44;10561926;28;20127;-76
2023/05/04 08:16:51;;;;;;;4.13;1.50;;;;;;;0.00;0.00;74136.84;10550583;28;20051;-76
2023/05/04 08:21:53;;;;;;;15.73;1.90;;;;;;;0.00;0.00;74078.88;10551909;28;20039;-76
2023/05/04 08:26:55;;;;;;;3.08;1.52;;;;;;;0.00;0.00;74034.63;10545423;28;20124;-76
2023/05/04 08:32:09;;;;;;;2.90;1.20;;;;;;;0.00;0.00;74069.72;10542611;28;20160;-76
2023/05/04 08:37:10;;;;;;;7.35;1.42;;;;;;;0.00;0.00;74048.34;10541455;28;20411;-75
2023/05/04 08:42:12;;;;;;;;;;;;;;;0.00;0.00;74004.09;10557013;28;20036;-76
2023/05/04 08:47:13;;;;;;;3.97;1.33;;;;;;;0.00;0.00;74016.31;10554090;28;19966;-76
2023/05/04 08:52:16;;;;;;;2.53;1.27;;;;;;;0.00;0.00;74020.88;10555640;27;20489;-76
2023/05/04 08:57:18;;;;;;;2.65;1.58;;;;;;;0.00;0.00;74051.41;10551641;28;20036;-75
2023/05/04 09:02:21;;;;;;;1.73;1.10;;;;;;;0.00;0.00;74004.09;10555773;28;20040;-76
2023/05/04 09:07:23;;;;;;;3.85;1.42;;;;;;;0.00;0.00;74040.72;10562614;27;20090;-75
2023/05/04 09:12:26;;;;;;;3.03;1.45;;;;;;;0.00;0.00;74016.31;10567010;27;20040;-75
2023/05/04 09:17:28;;;;;;;2.90;1.55;;;;;;;0.00;0.00;73959.84;10561272;28;20043;-75
2023/05/04 09:22:30;;;;;;;3.53;1.40;;;;;;;0.00;0.00;73952.22;10549950;28;20043;-75
2023/05/04 09:27:32;;;;;;;3.33;1.40;;;;;;;0.00;0.00;73914.06;10544135;28;20579;-75
2023/05/04 09:32:47;;;;;;;2.20;1.15;;;;;;;0.00;0.00;73929.31;10544399;28;20658;-75
2023/05/04 09:37:48;;;;;;;3.05;1.30;;;;;;;0.00;0.00;73932.38;10542207;28;20071;-75
2023/05/04 09:42:56;;;;;;;3.72;1.30;;;;;;;0.00;0.00;73904.91;10546652;27;20047;-75
2023/05/04 09:47:57;;;;;;;5.05;1.60;;;;;;;0.00;0.00;73885.06;10541001;27;20042;-75
2023/05/04 09:53:05;;;;;;;5.30;1.48;;;;;;;0.00;0.00;73915.59;10541399;27;20047;-75
2023/05/04 09:58:08;;;;;;;3.90;1.43;;;;;;;0.00;0.00;73883.56;10547999;28;20051;-73
2023/05/04 10:03:10;;;;;;;6.05;1.23;;;;;;;0.00;0.00;73912.53;10543204;28;20044;-72
2023/05/04 10:08:13;;;;;;;6.47;1.75;;;;;;;0.00;0.00;73911.00;10537291;28;20589;-74
2023/05/04 10:13:16;;;;;;;4.30;1.77;;;;;;;0.00;0.00;73880.50;10548805;28;20032;-73
2023/05/04 10:18:40;;;;;;;7.03;1.77;;;;;;;0.00;0.00;73830.16;10552100;28;20062;-73
2023/05/04 10:24:19;;;;;;;3.63;1.20;;;;;;;0.00;0.00;73846.94;10544745;28;20040;-76
2023/05/04 10:29:23;;;;;;;3.33;1.45;;;;;;;0.00;0.00;73822.50;10556992;28;20548;-76
2023/05/04 10:34:27;;;;;;;3.70;1.50;;;;;;;0.00;0.00;73785.88;10547061;28;20396;-76
2023/05/04 10:39:31;;;;;;;5.93;1.20;;;;;;;0.00;0.00;73830.16;10549564;28;20044;-76
2023/05/04 10:44:52;;;;;;;2.53;1.20;;;;;;;0.00;0.00;73816.41;10549060;28;20052;-75
2023/05/04 10:50:20;;;;;;;2.50;1.10;;;;;;;0.00;0.00;73810.31;10544514;28;20568;-76
2023/05/04 10:55:22;;;;;;;2.65;1.15;;;;;;;0.00;0.00;73802.69;10530564;28;20043;-76
2023/05/04 11:00:43;;;;;;;3.97;1.10;;;;;;;0.00;0.00;73817.94;10550378;27;20040;-75
2023/05/04 11:05:49;;;;;;;3.85;1.15;;;;;;;0.00;0.00;73799.63;10540290;27;20051;-75
2023/05/04 11:11:02;;;;;;;2.10;1.35;;;;;;;0.00;0.00;73795.03;10519655;27;20036;-76
2023/05/04 11:16:04;;;;;;;1.63;1.02;;;;;;;0.00;0.00;73756.91;10548085;28;20051;-76
2023/05/04 11:21:09;;;;;;;3.85;1.20;;;;;;;0.00;0.00;73767.59;10547166;28;20048;-75
2023/05/04 11:26:13;;;;;;;3.45;1.25;;;;;;;0.00;0.00;73720.28;10521795;28;20035;-76
2023/05/04 11:31:19;;;;;;;3.03;1.15;;;;;;;0.00;0.00;73735.53;10544289;28;20040;-75
2023/05/04 11:36:21;;;;;;;4.85;1.10;;;;;;;0.00;0.00;73700.44;10537059;28;20044;-75
2023/05/04 11:41:25;;;;;;;2.45;1.20;;;;;;;0.00;0.00;73695.88;10530883;28;20518;-76
2023/05/04 11:46:27;;;;;;;1.98;1.10;;;;;;;0.00;0.00;73706.53;10555940;28;20495;-76
2023/05/04 11:51:29;;;;;;;1.85;1.20;;;;;;;0.00;0.00;73666.88;10554024;28;20040;-76
2023/05/04 11:56:39;;;;;;;;;;;;;;;0.00;0.00;73657.72;10568206;28;20122;-76
2023/05/04 12:01:40;;;;;;;2.83;1.35;;;;;;;0.00;0.00;73613.47;10572505;28;19924;-76
2023/05/04 12:06:42;;;;;;;3.05;1.27;;;;;;;0.00;0.00;73659.25;10572510;28;20050;-76
2023/05/04 12:11:52;;;;;;;1.92;0.80;;;;;;;0.00;0.00;73651.63;10554488;28;20051;-75
2023/05/04 12:16:56;;;;;;;2.33;1.27;;;;;;;0.00;0.00;73676.03;10561381;27;20047;-75
2023/05/04 12:21:58;;;;;;;4.25;1.35;;;;;;;0.00;0.00;73657.72;10556543;28;20055;-76
2023/05/04 12:27:00;;;;;;;4.97;1.50;;;;;;;0.00;0.00;73656.19;10535887;28;20086;-75
2023/05/04 12:32:02;;;;;;;2.78;1.10;;;;;;;0.00;0.00;73660.78;10563162;28;20036;-76
2023/05/04 12:37:04;;;;;;;6.60;1.27;;;;;;;0.00;0.00;73590.56;10554156;28;20462;-76
2023/05/04 12:42:05;;;;;;;2.33;0.85;;;;;;;0.00;0.00;73550.91;10552951;28;20044;-76
2023/05/04 12:47:07;;;;;;;4.35;1.30;;;;;;;0.00;0.00;73555.47;10553446;28;20035;-76
2023/05/04 12:52:08;;;;;;;5.18;1.83;;;;;;;0.00;0.00;73596.69;10561373;28;20055;-76
2023/05/04 12:57:11;;;;;;;2.78;1.17;;;;;;;0.00;0.00;73598.22;10562658;28;20044;-76
2023/05/04 13:02:12;;;;;;;6.85;1.42;;;;;;;0.00;0.00;73584.47;10567702;28;20042;-77
2023/05/04 13:07:15;;;;;;;2.83;1.33;;;;;;;0.00;0.00;73570.75;10550823;27;20035;-77
2023/05/04 13:12:16;;;;;;;2.50;1.20;;;;;;;0.00;0.00;73538.69;10559923;27;20052;-75
2023/05/04 13:17:19;;;;;;;6.13;1.10;;;;;;;0.00;0.00;73528.00;10541606;28;20047;-77
2023/05/04 13:22:22;;;;;;;1.85;1.02;;;;;;;0.00;0.00;73505.13;10530923;27;20047;-76
2023/05/04 13:27:27;;;;;;;3.92;1.33;;;;;;;0.00;0.00;73514.28;10535713;28;20050;-77
2023/05/04 13:32:30;;;;;;;3.08;1.20;;;;;;;0.00;0.00;73511.22;10561831;28;20050;-77
2023/05/04 13:37:32;;;;;;;2.55;1.30;;;;;;;0.00;0.00;73518.88;10546301;28;20031;-78
2023/05/04 13:42:34;;;;;;;6.18;1.35;;;;;;;0.00;0.00;73538.69;10558128;28;20047;-77
2023/05/04 13:47:39;;;;;;;2.15;1.20;;;;;;;0.00;0.00;73524.97;10552651;28;20106;-76
2023/05/04 13:52:40;;;;;;;3.30;1.10;;;;;;;0.00;0.00;73508.19;10550764;28;20039;-77
2023/05/04 13:57:42;;;;;;;3.65;1.65;;;;;;;0.00;0.00;73492.91;10548580;27;20047;-77
2023/05/04 14:02:44;;;;;;;7.40;1.55;;;;;;;0.00;0.00;73466.97;10548428;28;20039;-76
2023/05/04 14:07:45;;;;;;;2.95;1.10;;;;;;;0.00;0.00;73468.50;10559343;28;20130;-77
2023/05/04 14:12:47;;;;;;;5.28;1.60;;;;;;;0.00;0.00;73502.06;10569781;27;20069;-76
2023/05/04 14:17:49;;;;;;;4.25;1.15;;;;;;;0.00;0.00;73462.41;10547447;28;20092;-77
2023/05/04 14:22:51;;;;;;;2.85;0.85;;;;;;;0.00;0.00;73434.94;10552438;28;20050;-76
2023/05/04 14:27:52;;;;;;;2.60;1.17;;;;;;;0.00;0.00;73445.63;10548946;28;20043;-78
2023/05/04 14:32:56;;;;;;;2.40;1.30;;;;;;;0.00;0.00;73482.25;10556585;28;20539;-78
2023/05/04 14:38:03;;;;;;;2.63;1.20;;;;;;;0.00;0.00;73477.66;10552729;28;20122;-77
2023/05/04 14:43:07;;;;;;;2.58;1.30;;;;;;;0.00;0.00;73463.94;10552477;27;20040;-75
2023/05/04 14:48:09;;;;;;;6.78;1.50;;;;;;;0.00;0.00;73447.16;10548815;27;20047;-74
2023/05/04 14:53:10;;;;;;;2.53;1.50;;;;;;;0.00;0.00;73441.03;10555877;28;20048;-75
2023/05/04 14:58:13;;;;;;;3.25;1.08;;;;;;;0.00;0.00;73486.81;10547684;27;20043;-74
2023/05/04 15:03:15;;;;;;;3.50;1.00;;;;;;;0.00;0.00;73474.59;10539768;28;20096;-75
2023/05/04 15:08:16;;;;;;;1.75;1.00;;;;;;;0.00;0.00;73457.81;10530029;28;20289;-75
2023/05/04 15:13:18;;;;;;;1.95;0.98;;;;;;;0.00;0.00;73453.25;10555092;27;20040;-75
2023/05/04 15:18:22;;;;;;;2.15;0.95;;;;;;;0.00;0.00;73442.56;10556030;27;20657;-76
2023/05/04 15:23:24;;;;;;;2.33;1.00;;;;;;;0.00;0.00;73448.66;10553729;28;20046;-74
2023/05/04 15:28:25;;;;;;;4.15;1.00;;;;;;;0.00;0.00;73450.19;10564834;27;20040;-75
2023/05/04 15:33:27;;;;;;;7.95;1.10;;;;;;;0.00;0.00;73412.06;10566534;27;20092;-75
2023/05/04 15:38:28;;;;;;;2.28;1.05;;;;;;;0.00;0.00;73433.41;10541772;28;20213;-76
2023/05/04 15:43:31;;;;;;;2.35;0.95;;;;;;;0.00;0.00;73453.25;10553942;28;20032;-75
2023/05/04 15:48:32;;;;;;;1.35;0.98;;;;;;;0.00;0.00;73441.03;10547708;28;20077;-74
2023/05/04 15:53:34;;;;;;;2.30;0.98;;;;;;;0.00;0.00;73444.09;10553631;28;20512;-74
2023/05/04 15:58:35;;;;;;;1.70;1.13;;;;;;;0.00;0.00;73438.00;10560014;28;20561;-76
2023/05/04 16:03:37;;;;;;;5.30;1.15;;;;;;;0.00;0.00;73392.22;10562622;28;21438;-76
2023/05/04 16:08:39;;;;;;;3.42;1.40;;;;;;;0.00;0.00;73381.53;10547676;28;20704;-77
2023/05/04 16:13:40;;;;;;;5.40;1.10;;;;;;;0.00;0.00;73410.53;10548164;28;20036;-74
2023/05/04 16:18:42;;;;;;;2.97;0.90;;;;;;;0.00;0.00;73415.09;10551464;28;20085;-74
2023/05/04 16:23:43;;;;;;;5.13;0.98;;;;;;;0.00;0.00;73401.38;10562735;27;20287;-75
2023/05/04 16:28:45;;;;;;;2.55;0.80;;;;;;;0.00;0.00;73410.53;10554994;28;20044;-75
2023/05/04 16:33:47;;;;;;;3.10;1.08;;;;;;;0.00;0.00;73419.69;10561953;28;20040;-74
2023/05/04 16:38:48;;;;;;;1.25;0.98;;;;;;;0.00;0.00;73395.25;10545948;27;20036;-75
2023/05/04 16:43:50;;;;;;;2.83;1.30;;;;;;;0.00;0.00;73404.41;10567049;28;20515;-76
2023/05/04 16:48:53;;;;;;;3.10;1.10;;;;;;;0.00;0.00;73415.09;10568523;27;20039;-75
2023/05/04 16:53:55;;;;;;;1.75;1.05;;;;;;;0.00;0.00;73402.91;10545234;28;20035;-75
2023/05/04 16:58:56;;;;;;;4.28;1.38;;;;;;;0.00;0.00;73386.09;10561320;28;20047;-75
2023/05/04 17:03:58;;;;;;;5.97;0.85;;;;;;;0.00;0.00;73380.00;10555925;28;20043;-74
2023/05/04 17:08:59;;;;;;;3.13;1.77;;;;;;;0.00;0.00;73380.00;10561937;27;20063;-75
2023/05/04 17:14:02;;;;;;;1.83;1.10;;;;;;;0.00;0.00;73360.16;10550940;27;20048;-77
2023/05/04 17:19:04;;;;;;;2.78;1.00;;;;;;;0.00;0.00;73354.06;10550602;28;20138;-76
2023/05/04 17:24:05;;;;;;;1.30;0.90;;;;;;;0.00;0.00;73372.38;10546723;28;20048;-76
2023/05/04 17:29:07;;;;;;;2.15;1.02;;;;;;;0.00;0.00;73410.53;10560753;28;20492;-75
2023/05/04 17:34:08;;;;;;;4.28;1.40;;;;;;;0.00;0.00;73439.50;10543493;27;20048;-77
2023/05/04 17:39:10;;;;;;;3.25;1.13;;;;;;;0.00;0.00;73476.13;10551023;28;20044;-76
2023/05/04 17:44:11;;;;;;;2.72;0.90;;;;;;;0.00;0.00;73506.66;10534817;28;20040;-74
2023/05/04 17:49:13;;;;;;;2.42;0.98;;;;;;;0.00;0.00;73524.97;10561605;28;20122;-75
2023/05/04 17:54:15;;;;;;;1.15;0.90;;;;;;;0.00;0.00;73541.75;10552576;28;20071;-74
2023/05/04 17:59:17;;;;;;;4.20;1.05;;;;;;;0.00;0.00;73560.06;10553987;28;20040;-75
2023/05/04 18:04:18;;;;;;;3.50;1.23;;;;;;;0.00;0.00;73578.38;10548144;28;20044;-75
2023/05/04 18:09:20;;;;;;;3.20;1.10;;;;;;;0.00;0.00;73599.72;10528633;28;20052;-75
2023/05/04 18:14:21;;;;;;;2.15;1.10;;;;;;;0.00;0.00;73607.38;10550197;27;20093;-75
2023/05/04 18:19:24;;;;;;;4.10;1.48;;;;;;;0.00;0.00;73621.09;10552249;27;20047;-75
2023/05/04 18:24:26;;;;;;;4.82;0.93;;;;;;;0.00;0.00;73639.41;10532805;28;20047;-76
2023/05/04 18:29:27;;;;;;;1.77;0.90;;;;;;;0.00;0.00;73654.66;10528997;28;20048;-76
2023/05/04 18:34:29;;;;;;;4.80;0.80;;;;;;;0.00;0.00;73671.44;10548042;27;20587;-75
2023/05/04 18:39:30;;;;;;;2.63;1.00;;;;;;;0.00;0.00;73692.81;10542500;28;20057;-75
2023/05/04 18:44:32;;;;;;;1.63;0.68;;;;;;;0.00;0.00;73703.50;10585949;27;20043;-74
2023/05/04 18:49:33;;;;;;;2.10;0.90;;;;;;;0.00;0.00;73718.75;10574294;27;20040;-75
2023/05/04 18:54:36;;;;;;;1.70;0.93;;;;;;;0.00;0.00;73744.69;10591517;27;20514;-75
2023/05/04 18:59:37;;;;;;;3.60;0.98;;;;;;;0.00;0.00;73767.59;10581793;27;20047;-74
2023/05/04 19:04:39;;;;;;;2.65;1.13;;;;;;;0.00;0.00;73792.00;10571531;27;20054;-74
2023/05/04 19:09:40;;;;;;;2.08;1.02;;;;;;;0.00;0.00;73811.84;10606310;27;20055;-75
2023/05/04 19:14:42;;;;;;;2.55;0.98;;;;;;;0.00;0.00;73831.66;10602589;27;20508;-74
2023/05/04 19:19:44;;;;;;;2.83;1.23;;;;;;;0.00;0.00;73845.41;10581963;27;20075;-75
2023/05/04 19:24:50;;;;;;;4.10;1.10;;;;;;;0.00;0.00;73868.28;10588445;27;20084;-75
2023/05/04 19:29:51;;;;;;;3.45;1.10;;;;;;;0.00;0.00;73868.28;10578900;27;20054;-75
2023/05/04 19:34:53;;;;;;;7.60;1.30;;;;;;;0.00;0.00;73880.50;10596114;28;20035;-76
2023/05/04 19:39:55;;;;;;;2.10;1.17;;;;;;;0.00;0.00;73892.69;10592449;28;20035;-74
2023/05/04 19:44:57;;;;;;;0.82;0.80;;;;;;;0.00;0.00;73904.91;10581115;28;20035;-76
2023/05/04 19:49:59;;;;;;;1.95;1.00;;;;;;;0.00;0.00;73920.16;10592369;28;20515;-75
2023/05/04 19:55:01;;;;;;;2.28;0.98;;;;;;;0.00;0.00;73929.31;10569147;28;20040;-75
2023/05/04 20:00:04;;;;;;;1.50;1.10;;;;;;;0.00;0.00;73938.47;10564239;28;20047;-75
2023/05/04 20:05:12;;;;;;;2.03;1.00;;;;;;;0.00;0.00;73943.06;10587563;28;20071;-75
2023/05/04 20:10:14;;;;;;;3.78;1.30;;;;;;;0.00;0.00;73950.69;10592554;28;20127;-76
2023/05/04 20:15:16;;;;;;;5.60;1.10;;;;;;;0.00;0.00;73952.22;10568148;27;20065;-76
2023/05/04 20:20:20;;;;;;;3.45;1.00;;;;;;;0.00;0.00;73950.69;10603353;27;20057;-75
2023/05/04 20:25:21;;;;;;;1.70;0.95;;;;;;;0.00;0.00;73953.75;10567377;27;20403;-74
2023/05/04 20:30:26;;;;;;;5.05;0.88;;;;;;;0.00;0.00;73953.75;10594127;27;20050;-75
2023/05/04 20:35:28;;;;;;;2.88;1.10;;;;;;;0.00;0.00;73953.75;10603260;27;20244;-75
2023/05/04 20:40:30;;;;;;;3.70;1.20;;;;;;;0.00;0.00;73958.31;10574886;27;20035;-75
2023/05/04 20:45:33;;;;;;;2.35;0.98;;;;;;;0.00;0.00;73956.78;10566872;27;20046;-75
2023/05/04 20:50:34;;;;;;;1.77;0.90;;;;;;;0.00;0.00;73958.31;10593723;27;20133;-75
2023/05/04 20:55:39;;;;;;;2.30;1.13;;;;;;;0.00;0.00;73956.78;10585879;27;20112;-74
2023/05/04 21:00:40;;;;;;;3.85;1.13;;;;;;;0.00;0.00;73959.84;10585885;27;20035;-75
2023/05/04 21:05:42;;;;;;;4.40;1.00;;;;;;;0.00;0.00;73962.91;10587011;27;20039;-75
2023/05/04 21:10:43;;;;;;;2.65;1.15;;;;;;;0.00;0.00;73965.94;10602997;27;20514;-75
2023/05/04 21:15:45;;;;;;;3.10;1.00;;;;;;;0.00;0.00;73975.09;10600966;27;20535;-75
2023/05/04 21:20:47;;;;;;;1.08;0.95;;;;;;;0.00;0.00;73978.16;10583701;27;20052;-75
2023/05/04 21:25:49;;;;;;;2.95;1.05;;;;;;;0.00;0.00;73987.31;10586743;27;20487;-74
2023/05/04 21:30:51;;;;;;;1.13;0.85;;;;;;;0.00;0.00;74001.03;10565749;27;20526;-75
2023/05/04 21:35:53;;;;;;;1.20;0.85;;;;;;;0.00;0.00;74017.81;10584204;27;20139;-74
2023/05/04 21:40:54;;;;;;;1.52;1.00;;;;;;;0.00;0.00;74037.66;10592705;27;20047;-75
2023/05/04 21:45:56;;;;;;;3.03;1.35;;;;;;;0.00;0.00;74054.44;10574009;27;20583;-74
2023/05/04 21:50:57;;;;;;;3.70;1.50;;;;;;;0.00;0.00;74078.88;10593425;27;20418;-75
2023/05/04 21:56:04;;;;;;;10.20;1.30;;;;;;;0.00;0.00;74092.59;10607113;27;20134;-75
2023/05/04 22:01:07;;;;;;;4.20;1.38;;;;;;;0.00;0.00;74104.81;10606204;27;20712;-75
2023/05/04 22:06:09;;;;;;;6.20;1.17;;;;;;;0.00;0.00;74113.97;10583520;27;20104;-74
2023/05/04 22:11:11;;;;;;;3.40;1.08;;;;;;;0.00;0.00;74123.13;10584912;27;20043;-74
2023/05/04 22:16:12;;;;;;;3.53;1.20;;;;;;;0.00;0.00;74127.69;10580929;27;20533;-75
2023/05/04 22:21:15;;;;;;;7.20;1.58;;;;;;;0.00;0.00;74139.91;10610366;27;20050;-75
2023/05/04 22:26:16;;;;;;;5.75;1.67;;;;;;;0.00;0.00;74149.06;10596529;27;20051;-75
2023/05/04 22:31:18;;;;;;;5.70;1.52;;;;;;;0.00;0.00;74158.22;10591538;27;20043;-75
2023/05/04 22:36:20;;;;;;;3.28;1.35;;;;;;;0.00;0.00;74167.38;10596018;27;20057;-75
2023/05/04 22:41:22;;;;;;;15.50;1.63;;;;;;;0.00;0.00;74181.09;10584995;27;20055;-75
2023/05/04 22:46:24;;;;;;;3.45;1.35;;;;;;;0.00;0.00;74185.69;10572647;27;20401;-76
2023/05/04 22:51:26;;;;;;;4.65;1.40;;;;;;;0.00;0.00;74190.25;10598027;27;20038;-76
2023/05/04 22:56:29;;;;;;;3.40;2.05;;;;;;;0.00;0.00;74191.78;10581260;27;20151;-75
2023/05/04 23:01:31;;;;;;;8.48;1.88;;;;;;;0.00;0.00;74194.81;10607666;27;20633;-76
2023/05/04 23:06:34;;;;;;;4.25;1.45;;;;;;;0.00;0.00;74207.03;10590619;27;20040;-75
2023/05/04 23:11:36;;;;;;;3.80;1.35;;;;;;;0.00;0.00;74207.03;10581074;27;20039;-76
2023/05/04 23:16:38;;;;;;;2.65;1.33;;;;;;;0.00;0.00;74211.63;10605104;27;20058;-75
2023/05/04 23:21:39;;;;;;;3.72;1.52;;;;;;;0.00;0.00;74220.78;10562653;27;20526;-76
2023/05/04 23:26:41;;;;;;;3.33;1.40;;;;;;;0.00;0.00;74219.25;10562672;27;20035;-75
2023/05/04 23:31:43;;;;;;;3.22;1.30;;;;;;;0.00;0.00;74231.44;10597348;27;20038;-75
2023/05/04 23:36:44;;;;;;;4.72;1.65;;;;;;;0.00;0.00;74231.44;10571549;28;20060;-76
2023/05/04 23:41:46;;;;;;;6.53;1.50;;;;;;;0.00;0.00;74229.94;10597279;28;20050;-76
2023/05/04 23:46:47;;;;;;;3.70;1.70;;;;;;;0.00;0.00;74229.94;10601225;27;20432;-75
2023/05/04 23:51:49;;;;;;;4.05;1.60;;;;;;;0.00;0.00;74234.50;10596987;27;20047;-75
2023/05/04 23:56:50;;;;;;;3.55;1.55;;;;;;;0.00;0.00;74234.50;10588307;27;20543;-75
